Memphis, Mississippi
Current Conditions -  °F | °C
As of 8:16 PM on Monday 22 Dec 2014 (Local Time) from KMEM Reporting Station
Light Rain Light Rain  
Wind Chill: 57°   Ceiling: 1000
Heat Index: 57°   Visibility: 5mi
Dew Point: 55°   Wind: 8mph
Humidity: 94%   Direction: 170°S
Pressure: 29.64"   Gusts: NA
Location:  34.9578°N, 90.1057°W
Report Text: KMEM 230216Z 17007KT 5SM -RA BR SCT005 BKN010 OVC038 14/13 A2964 RMK AO2 P0002
Loading
Personal Weather Stations






























Interactive Weather Map New forecast layout! Learn more

10-Day Weather Forecast

Advertisements
Track Severe Weather on mobile